Time;durP1;ratioP1;P1;durP2;ratioP2;P2;SDS_P1;SDS_P2;PMS_P1;PMS_P2;Temp;Humidity;BMP_temperature;BMP_pressure;BME280_temperature;BME280_humidity;BME280_pressure;Samples;Min_cycle;Max_cycle;Signal;HPM_P1;HPM_P2
2022/08/17 00:00:26;;;;;;;19.10;14.53;;;20.90;99.90;;;20.89;76.42;100513.47;5035318;28;20451;-72
2022/08/17 00:03:21;;;;;;;17.83;15.97;;;20.80;99.90;;;20.89;75.99;100512.63;5026863;28;20428;-70
2022/08/17 00:05:53;;;;;;;17.77;15.90;;;20.80;99.90;;;20.81;76.77;100505.78;5037465;28;20409;-71
2022/08/17 00:08:26;;;;;;;16.00;14.30;;;20.70;99.90;;;20.80;76.99;100512.38;5037734;28;20539;-72
2022/08/17 00:10:56;;;;;;;16.27;13.97;;;20.70;99.90;;;20.77;77.61;100513.75;5040819;28;20538;-71
2022/08/17 00:13:31;;;;;;;14.80;13.33;;;20.70;99.90;;;20.77;77.26;100523.94;5034195;28;20889;-71
2022/08/17 00:16:05;;;;;;;17.43;14.67;;;20.70;99.90;;;20.73;76.91;100520.91;5034002;28;20494;-72
2022/08/17 00:18:37;;;;;;;16.67;14.90;;;20.60;99.90;;;20.67;77.00;100504.72;5033952;28;20454;-71
2022/08/17 00:21:26;;;;;;;20.37;14.20;;;20.60;99.90;;;20.66;77.38;100514.06;5048432;28;20479;-72
2022/08/17 00:24:16;;;;;;;15.10;13.50;;;20.50;99.90;;;20.74;76.85;100508.00;5040329;28;20506;-72
2022/08/17 00:26:45;;;;;;;17.27;15.10;;;20.60;99.90;;;20.71;77.25;100511.31;5041194;28;20524;-72
2022/08/17 00:29:14;;;;;;;22.70;16.77;;;20.60;99.90;;;20.64;77.54;100519.00;5035374;28;20450;-70
2022/08/17 00:31:48;;;;;;;15.97;14.30;;;20.50;99.90;;;20.52;77.72;100527.56;5033621;28;20974;-72
2022/08/17 00:34:18;;;;;;;16.20;13.77;;;20.40;99.90;;;20.44;78.02;100524.53;5038169;28;20468;-74
2022/08/17 00:36:47;;;;;;;20.07;13.27;;;20.30;99.90;;;20.45;77.70;100527.00;5043130;28;20466;-73
2022/08/17 00:39:16;;;;;;;16.00;14.10;;;20.40;99.90;;;20.36;77.21;100532.25;5052881;28;20458;-73
2022/08/17 00:41:45;;;;;;;15.60;14.10;;;20.30;99.90;;;20.30;77.09;100524.22;5044124;28;20471;-72
2022/08/17 00:44:14;;;;;;;13.93;12.60;;;20.20;99.90;;;20.23;77.47;100524.53;5041732;28;20435;-71
2022/08/17 00:46:44;;;;;;;14.83;13.23;;;20.20;99.90;;;20.26;78.05;100523.13;5040021;28;20473;-72
2022/08/17 00:49:18;;;;;;;17.13;13.27;;;20.20;99.90;;;20.21;77.82;100526.72;5040086;28;20434;-71
2022/08/17 00:51:55;;;;;;;14.90;13.40;;;20.10;99.90;;;20.20;77.73;100524.22;5041038;28;20444;-71
2022/08/17 00:54:30;;;;;;;14.53;12.57;;;20.10;99.90;;;20.21;77.74;100520.38;5055575;28;20445;-71
2022/08/17 00:57:09;;;;;;;15.03;13.53;;;20.10;99.90;;;20.30;77.94;100527.84;5034640;28;20432;-71
2022/08/17 00:59:44;;;;;;;15.67;12.90;;;20.20;99.90;;;20.47;77.99;100527.56;5044998;28;20446;-70
2022/08/17 01:02:24;;;;;;;14.90;13.40;;;20.30;99.90;;;20.30;78.32;100526.97;5042349;28;20475;-70
2022/08/17 01:04:55;;;;;;;15.60;13.90;;;20.20;99.90;;;20.18;78.55;100521.78;5040515;28;20447;-70
2022/08/17 01:07:26;;;;;;;15.17;13.60;;;20.10;99.90;;;20.32;78.31;100528.41;5046150;28;20462;-70
2022/08/17 01:09:55;;;;;;;16.73;14.67;;;20.20;99.90;;;20.28;78.49;100527.25;5037585;28;20411;-71
2022/08/17 01:12:24;;;;;;;16.60;15.00;;;20.20;99.90;;;20.17;78.33;100535.78;5033337;28;20445;-73
2022/08/17 01:14:53;;;;;;;16.53;13.90;;;20.10;99.90;;;20.14;79.52;100531.66;5042340;28;20411;-71
2022/08/17 01:17:22;;;;;;;16.80;14.03;;;20.10;99.90;;;20.17;80.18;100533.03;5033463;28;20573;-71
2022/08/17 01:19:51;;;;;;;17.33;15.37;;;20.10;99.90;;;20.12;80.07;100533.03;5044965;28;20446;-73
2022/08/17 01:22:23;;;;;;;17.27;15.50;;;20.10;99.90;;;20.11;80.07;100534.94;5035022;28;21019;-71
2022/08/17 01:24:59;;;;;;;15.57;13.97;;;20.00;99.90;;;20.13;80.03;100541.00;5032206;28;20595;-71
2022/08/17 01:27:29;;;;;;;16.17;14.10;;;20.00;99.90;;;20.11;79.74;100537.69;5035462;28;20600;-71
2022/08/17 01:30:07;;;;;;;17.13;15.33;;;20.00;99.90;;;20.07;79.84;100533.03;5039121;28;20456;-72
2022/08/17 01:32:55;;;;;;;13.83;12.30;;;20.00;99.90;;;20.11;80.14;100532.19;5042756;28;20436;-71
2022/08/17 01:35:25;;;;;;;16.23;14.20;;;20.00;99.90;;;20.20;79.47;100536.06;5046400;28;20412;-70
2022/08/17 01:37:55;;;;;;;17.00;15.33;;;20.10;99.90;;;20.20;80.04;100544.28;5044852;28;20951;-72
2022/08/17 01:40:33;;;;;;;16.70;13.50;;;20.10;99.90;;;20.29;79.25;100548.13;5037564;28;20478;-73
2022/08/17 01:43:10;;;;;;;15.43;13.93;;;20.10;99.90;;;20.45;77.41;100559.16;5035834;28;20470;-73
2022/08/17 01:45:43;;;;;;;14.73;13.40;;;20.20;99.90;;;20.41;75.89;100552.56;5035367;28;20425;-71
2022/08/17 01:48:14;;;;;;;15.47;12.80;;;20.20;99.90;;;20.32;76.29;100555.88;5037174;28;20479;-70
2022/08/17 01:50:46;;;;;;;15.87;14.00;;;20.20;99.90;;;20.28;76.81;100553.94;5031997;28;20470;-72
2022/08/17 01:53:22;;;;;;;17.50;13.03;;;20.10;99.90;;;20.18;77.35;100556.66;5036000;28;20411;-71
2022/08/17 01:55:57;;;;;;;17.40;13.60;;;20.10;99.90;;;20.01;78.52;100558.81;5045254;28;20465;-71
2022/08/17 01:58:26;;;;;;;13.90;12.50;;;20.00;99.90;;;19.85;78.38;100558.78;5039397;28;21032;-71
2022/08/17 02:00:56;;;;;;;15.77;13.90;;;19.80;99.90;;;19.82;78.03;100545.63;5030692;28;20463;-72
2022/08/17 02:03:30;;;;;;;17.40;15.50;;;19.80;99.90;;;19.84;77.94;100548.94;5033685;28;20414;-71
2022/08/17 02:05:59;;;;;;;15.10;13.60;;;19.80;99.90;;;19.85;78.25;100555.22;5043214;28;20942;-70
2022/08/17 02:08:31;;;;;;;13.57;12.30;;;19.80;99.90;;;19.82;78.44;100544.78;5037335;28;20446;-70
2022/08/17 02:11:13;;;;;;;16.50;12.87;;;19.70;99.90;;;19.98;78.64;100543.72;5025511;28;20427;-72
2022/08/17 02:13:43;;;;;;;16.27;14.67;;;19.80;99.90;;;19.93;78.91;100546.47;5027144;28;20438;-72
2022/08/17 02:16:13;;;;;;;16.57;13.77;;;19.80;99.90;;;19.94;79.32;100548.13;5039207;28;20842;-71
2022/08/17 02:18:42;;;;;;;18.00;14.67;;;19.80;99.90;;;19.84;79.34;100545.38;5043633;28;20430;-72
2022/08/17 02:21:11;;;;;;;14.30;12.90;;;19.80;99.90;;;19.75;80.04;100545.03;5032033;28;20482;-71
2022/08/17 02:23:46;;;;;;;17.07;15.23;;;19.70;99.90;;;19.69;80.62;100548.06;5034709;28;20898;-72
2022/08/17 02:26:16;;;;;;;15.10;13.70;;;19.60;99.90;;;19.67;80.40;100547.50;5031407;28;20421;-72
2022/08/17 02:28:54;;;;;;;16.80;13.83;;;19.60;99.90;;;19.73;79.49;100550.00;5038417;28;20480;-71
2022/08/17 02:31:23;;;;;;;16.73;14.93;;;19.60;99.90;;;19.71;79.64;100541.19;5041131;28;20444;-71
2022/08/17 02:33:52;;;;;;;15.37;13.87;;;19.60;99.90;;;19.73;79.93;100543.69;5039554;28;20398;-71
2022/08/17 02:36:32;;;;;;;15.80;14.23;;;19.60;99.90;;;19.66;80.31;100543.09;5037343;28;20399;-71
2022/08/17 02:39:06;;;;;;;15.07;13.27;;;19.60;99.90;;;19.62;80.47;100540.06;5032394;28;20452;-71
2022/08/17 02:41:36;;;;;;;13.63;12.43;;;19.60;99.90;;;19.61;81.19;100545.81;5032825;28;20426;-71
2022/08/17 02:44:06;;;;;;;16.13;14.47;;;19.50;99.90;;;19.62;80.34;100542.00;5032554;28;20463;-71
2022/08/17 02:46:35;;;;;;;14.73;13.33;;;19.50;99.90;;;19.65;79.71;100549.72;5037874;28;20466;-71
2022/08/17 02:49:05;;;;;;;17.87;15.60;;;19.50;99.90;;;19.78;79.71;100543.69;5039150;28;20426;-71
2022/08/17 02:51:34;;;;;;;14.17;12.40;;;19.60;99.90;;;19.75;79.52;100541.50;5035087;28;20418;-73
2022/08/17 02:54:04;;;;;;;16.30;13.90;;;19.60;99.90;;;19.73;79.78;100549.16;5031498;28;20951;-72
2022/08/17 02:56:53;;;;;;;15.77;13.20;;;19.60;99.90;;;19.77;80.68;100547.53;5043364;28;20427;-71
2022/08/17 02:59:23;;;;;;;14.60;13.10;;;19.70;99.90;;;19.68;81.06;100541.75;5033544;28;20462;-72
2022/08/17 03:01:52;;;;;;;18.73;14.07;;;19.60;99.90;;;19.75;81.40;100538.75;5032518;28;20450;-71
2022/08/17 03:04:21;;;;;;;15.27;13.47;;;19.60;99.90;;;19.70;80.78;100541.50;5040973;28;20454;-70
2022/08/17 03:06:50;;;;;;;13.57;12.17;;;19.60;99.90;;;19.79;80.54;100545.34;5044076;28;20432;-71
2022/08/17 03:09:20;;;;;;;13.90;12.60;;;19.60;99.90;;;19.83;80.85;100546.44;5034083;28;20447;-70
2022/08/17 03:11:49;;;;;;;14.80;13.33;;;19.60;99.90;;;19.80;80.78;100542.31;5030762;28;20842;-71
2022/08/17 03:14:23;;;;;;;19.50;12.67;;;19.60;99.90;;;19.83;80.98;100546.44;5040566;28;20441;-70
2022/08/17 03:16:53;;;;;;;16.83;13.33;;;19.70;99.90;;;19.62;81.46;100547.47;5032404;28;20407;-70
2022/08/17 03:19:22;;;;;;;15.17;13.60;;;19.60;99.90;;;19.57;82.05;100550.22;5035409;28;20422;-69
2022/08/17 03:21:51;;;;;;;15.73;14.03;;;19.50;99.90;;;19.47;82.39;100543.59;5027004;28;20415;-71
2022/08/17 03:24:24;;;;;;;16.60;13.97;;;19.40;99.90;;;19.42;82.48;100545.47;5040368;28;20776;-72
2022/08/17 03:26:56;;;;;;;20.43;13.97;;;19.40;99.90;;;19.71;82.37;100545.84;5031296;28;20521;-71
2022/08/17 03:29:25;;;;;;;15.70;14.20;;;19.50;99.90;;;19.64;82.40;100546.13;5039321;28;20437;-71
2022/08/17 03:31:54;;;;;;;15.27;13.80;;;19.50;99.90;;;19.74;80.50;100545.34;5037992;28;20879;-70
2022/08/17 03:34:22;;;;;;;19.87;16.47;;;19.50;99.90;;;19.68;79.64;100543.66;5035003;28;20514;-70
2022/08/17 03:36:51;;;;;;;17.73;15.70;;;19.50;99.90;;;19.57;79.34;100544.72;5042714;28;20476;-70
2022/08/17 03:39:20;;;;;;;17.07;14.83;;;19.50;99.90;;;19.57;79.37;100539.22;5032137;28;20457;-71
2022/08/17 03:41:50;;;;;;;15.50;13.97;;;19.40;99.90;;;19.51;79.69;100541.13;5039816;28;20486;-72
2022/08/17 03:44:19;;;;;;;19.20;14.40;;;19.40;99.90;;;19.48;79.92;100542.50;5042938;28;20796;-72
2022/08/17 03:58:05;;;;;;;18.57;16.07;;;19.40;99.90;;;19.63;79.06;100543.66;5030679;28;20467;-72
2022/08/17 04:00:36;;;;;;;19.10;16.67;;;19.40;99.90;;;19.68;78.61;100543.66;5031383;28;20458;-72
2022/08/17 04:03:07;;;;;;;18.67;16.73;;;19.40;99.90;;;19.57;79.16;100541.97;5032439;28;20441;-71
2022/08/17 04:05:36;;;;;;;16.43;14.73;;;19.40;99.90;;;19.70;79.76;100546.97;5040621;28;20434;-71
2022/08/17 04:08:06;;;;;;;19.30;16.50;;;19.40;99.90;;;19.77;79.02;100547.53;5036497;28;21017;-71
2022/08/17 04:10:36;;;;;;;20.07;16.10;;;19.50;99.90;;;19.79;79.54;100542.59;5035543;28;20478;-71
2022/08/17 04:13:14;;;;;;;19.73;16.93;;;19.50;99.90;;;19.86;79.38;100538.47;5044241;28;20409;-71
2022/08/17 04:15:52;;;;;;;19.73;15.90;;;19.60;99.90;;;20.01;78.28;100548.66;5033432;28;20406;-71
2022/08/17 04:18:21;;;;;;;17.57;14.97;;;19.70;99.90;;;20.10;78.18;100541.53;5034684;28;20553;-71
2022/08/17 04:20:50;;;;;;;22.40;17.70;;;19.70;99.90;;;20.41;77.68;100541.59;5032521;28;20513;-71
2022/08/17 04:23:19;;;;;;;18.00;15.93;;;19.80;99.90;;;20.98;74.56;100542.03;5038170;28;20484;-71
2022/08/17 04:25:52;;;;;;;17.73;14.97;;;20.10;99.90;;;21.41;72.42;100537.78;5034749;28;20440;-71
2022/08/17 04:28:22;;;;;;;16.87;15.07;;;20.40;99.90;;;22.01;70.56;100544.91;5035262;28;20955;-71
2022/08/17 04:30:51;;;;;;;17.77;15.67;;;20.60;99.90;;;22.78;67.94;100553.38;5033107;28;20468;-71
2022/08/17 04:33:23;;;;;;;18.70;16.60;;;21.00;99.90;;;23.58;64.14;100545.28;5042873;28;20436;-72
2022/08/17 04:35:56;;;;;;;17.50;15.67;;;21.50;99.90;;;24.08;62.15;100549.25;5032051;28;20497;-71
2022/08/17 04:38:29;;;;;;;17.60;15.07;;;21.90;99.90;;;24.76;59.94;100554.22;5029634;28;20889;-72
2022/08/17 04:43:46;;;;;;;21.07;18.87;;;22.70;99.90;;;25.52;56.82;100562.69;5006403;28;20554;-71
2022/08/17 04:46:19;;;;;;;23.53;20.93;;;23.00;98.20;;;25.90;56.01;100559.69;5031209;28;20444;-72
2022/08/17 04:48:52;;;;;;;26.80;24.00;;;23.40;94.10;;;26.28;54.49;100561.03;5031534;28;20466;-71
2022/08/17 04:51:24;;;;;;;25.27;22.63;;;23.80;90.30;;;26.55;53.67;100567.56;5027683;28;20525;-71
2022/08/17 04:53:56;;;;;;;28.17;23.57;;;23.90;82.30;;;27.10;52.10;100568.88;5031568;28;20448;-72
2022/08/17 04:56:28;;;;;;;24.50;21.97;;;24.30;74.20;;;27.35;51.47;100574.88;5029340;28;20450;-72
2022/08/17 04:59:04;;;;;;;25.17;22.63;;;24.70;63.10;;;27.45;51.05;100569.81;5032600;28;20460;-72
2022/08/17 05:01:36;;;;;;;22.43;19.50;;;25.10;57.20;;;27.36;51.20;100568.97;5030976;28;20943;-72
2022/08/17 05:04:10;;;;;;;22.97;18.60;;;25.30;51.40;;;27.12;52.16;100574.94;5031862;28;20441;-71
2022/08/17 05:06:59;;;;;;;20.10;17.37;;;25.10;51.40;;;27.88;50.29;100574.69;5034343;28;20443;-71
2022/08/17 05:09:28;;;;;;;19.37;17.47;;;25.40;50.40;;;28.32;48.85;100576.38;5038519;28;20476;-71
2022/08/17 05:12:01;;;;;;;21.60;19.60;;;25.50;46.60;;;28.49;48.81;100581.91;5038787;28;20517;-71
2022/08/17 05:14:31;;;;;;;19.43;15.80;;;25.50;47.60;;;28.99;47.24;100575.78;5036035;28;20438;-71
2022/08/17 05:17:01;;;;;;;16.60;14.90;;;25.60;45.30;;;28.93;47.73;100598.25;5039483;28;20924;-71
2022/08/17 05:19:38;;;;;;;22.40;16.57;;;25.40;46.60;;;28.96;47.93;100591.16;5043584;28;20470;-71
2022/08/17 05:22:07;;;;;;;17.63;15.30;;;25.50;46.10;;;28.31;48.98;100591.44;5040495;28;20951;-72
2022/08/17 05:24:36;;;;;;;17.93;16.17;;;25.30;47.20;;;26.88;52.57;100593.09;5034833;28;20967;-72
2022/08/17 05:27:15;;;;;;;18.77;16.97;;;25.00;51.60;;;25.53;56.51;100592.03;5030649;28;20993;-73
2022/08/17 05:29:48;;;;;;;17.23;15.50;;;24.30;61.70;;;24.77;59.09;100597.38;5040876;28;20439;-72
2022/08/17 05:32:21;;;;;;;19.67;17.17;;;23.90;74.00;;;24.35;60.74;100595.59;5040672;28;20422;-71
2022/08/17 05:35:08;;;;;;;19.10;17.10;;;23.70;84.40;;;23.98;61.23;100599.16;5042252;28;20432;-71
2022/08/17 05:37:37;;;;;;;18.43;16.60;;;23.40;88.10;;;23.78;63.06;100598.31;5032283;28;20487;-73
2022/08/17 05:40:08;;;;;;;21.43;17.33;;;23.40;94.10;;;23.69;62.32;100597.34;5034220;28;20486;-72
2022/08/17 05:42:37;;;;;;;19.80;17.50;;;23.30;92.90;;;23.68;62.13;100603.16;5032108;28;20452;-72
2022/08/17 05:45:11;;;;;;;19.60;17.77;;;23.30;92.20;;;23.71;61.89;100600.63;5041731;28;20852;-72
2022/08/17 05:47:41;;;;;;;19.70;17.77;;;23.30;91.60;;;23.72;62.45;100607.78;5042344;28;20467;-70
2022/08/17 05:50:26;;;;;;;19.90;17.20;;;23.30;92.60;;;23.91;61.21;100604.25;5051541;28;20444;-71
2022/08/17 05:53:09;;;;;;;22.40;19.53;;;23.40;91.50;;;24.03;60.36;100613.72;5050922;28;20435;-72
2022/08/17 05:55:51;;;;;;;20.50;18.40;;;23.50;86.50;;;24.03;59.47;100607.38;5045092;28;20929;-71
2022/08/17 05:58:31;;;;;;;18.87;16.57;;;23.50;81.40;;;24.05;62.38;100610.66;5044838;28;20489;-71
2022/08/17 06:01:12;;;;;;;19.57;17.40;;;23.50;92.90;;;24.17;60.27;100608.28;5045322;28;20442;-71
2022/08/17 06:03:57;;;;;;;19.37;17.27;;;23.60;86.30;;;24.34;59.43;100608.59;5030189;28;20479;-72
2022/08/17 06:06:39;;;;;;;19.00;17.20;;;23.80;80.50;;;24.53;58.53;100612.16;5042951;28;20450;-72
2022/08/17 06:09:44;;;;;;;17.73;15.93;;;23.90;74.90;;;24.61;57.87;100603.16;5039777;28;20980;-72
2022/08/17 06:12:46;;;;;;;15.37;13.90;;;24.10;69.10;;;24.79;57.47;100614.47;5038162;28;20508;-72
2022/08/17 06:16:18;;;;;;;16.17;13.60;;;24.20;66.60;;;24.94;56.12;100617.00;5039738;28;20451;-73
2022/08/17 06:19:44;;;;;;;16.80;15.00;;;24.40;56.80;;;25.10;56.08;100621.97;5038448;28;20463;-72
2022/08/17 06:22:20;;;;;;;17.57;14.73;;;24.60;56.60;;;25.17;56.44;100620.75;5034979;28;20428;-72
2022/08/17 06:24:56;;;;;;;14.13;12.77;;;24.70;55.50;;;25.31;56.23;100627.13;5037300;28;20479;-70
2022/08/17 06:27:34;;;;;;;16.00;14.20;;;24.80;55.10;;;25.45;56.58;100625.19;5040561;28;20515;-71
2022/08/17 06:30:11;;;;;;;16.40;14.60;;;25.00;55.80;;;25.57;55.77;100616.38;5037929;28;20471;-71
2022/08/17 06:32:48;;;;;;;17.50;14.73;;;25.10;52.10;;;25.77;55.65;100624.28;5047841;28;20445;-70
2022/08/17 06:35:32;;;;;;;14.77;13.23;;;25.20;51.80;;;25.89;54.88;100627.34;5039125;28;20824;-71
2022/08/17 06:41:19;;;;;;;13.60;12.40;;;25.50;46.80;;;26.07;53.82;100631.94;5032473;28;20535;-70
2022/08/17 06:44:06;;;;;;;14.27;12.80;;;25.70;44.40;;;26.28;52.99;100635.91;5039757;28;20488;-72
2022/08/17 06:46:41;;;;;;;16.13;13.00;;;25.80;41.70;;;26.49;52.78;100629.84;5033872;28;20447;-71
2022/08/17 06:49:20;;;;;;;14.67;11.97;;;26.00;40.90;;;26.72;52.30;100639.84;5027023;28;20462;-70
2022/08/17 06:51:58;;;;;;;15.10;13.33;;;26.20;39.30;;;26.91;52.19;100626.63;5027197;28;20776;-71
2022/08/17 06:54:39;;;;;;;12.73;10.97;;;26.30;38.30;;;27.17;50.42;100629.50;5037815;28;20438;-71
2022/08/17 06:57:18;;;;;;;14.10;12.70;;;26.50;33.20;;;27.30;48.28;100633.34;5040714;28;20522;-71
2022/08/17 06:59:54;;;;;;;12.50;11.27;;;26.70;29.00;;;27.47;48.74;100633.41;5034164;28;20468;-70
2022/08/17 07:02:48;;;;;;;12.47;11.30;;;26.90;27.30;;;27.61;48.55;100634.16;5042090;28;20442;-71
2022/08/17 07:05:25;;;;;;;12.77;11.00;;;27.10;26.60;;;27.77;47.17;100632.56;5033058;28;20472;-72
2022/08/17 07:08:05;;;;;;;12.13;11.03;;;27.20;24.20;;;27.93;46.20;100628.16;5030665;28;20496;-70
2022/08/17 07:10:44;;;;;;;13.00;11.70;;;27.40;22.60;;;27.99;46.39;100628.84;5032246;28;20475;-71
2022/08/17 07:13:43;;;;;;;11.10;10.00;;;27.50;21.50;;;28.16;46.36;100639.22;5032755;28;20465;-71
2022/08/17 07:16:27;;;;;;;11.03;9.93;;;27.60;21.40;;;28.31;46.05;100642.34;5035942;28;20440;-71
2022/08/17 07:18:58;;;;;;;11.23;9.83;;;27.60;21.10;;;28.58;45.91;100637.56;5037671;28;20549;-71
2022/08/17 07:21:44;;;;;;;11.90;10.70;;;27.90;20.90;;;28.53;44.02;100635.78;5049347;28;20944;-70
2022/08/17 07:24:34;;;;;;;11.20;10.10;;;28.10;17.30;;;28.73;44.59;100632.34;5048814;28;20479;-71
2022/08/17 07:27:08;;;;;;;12.00;9.87;;;28.10;17.40;;;28.64;43.99;100634.31;5053502;28;20440;-72
2022/08/17 07:29:43;;;;;;;10.57;9.13;;;28.20;15.60;;;28.83;43.74;100629.22;5048709;28;20443;-72
2022/08/17 07:32:18;;;;;;;11.90;9.00;;;28.30;15.10;;;29.07;43.55;100625.88;5052597;28;20972;-71
2022/08/17 07:35:20;;;;;;;9.13;8.30;;;28.40;15.40;;;29.08;42.00;100635.06;5059317;28;20998;-71
2022/08/17 07:38:07;;;;;;;9.10;8.10;;;28.60;12.40;;;29.14;42.59;100636.53;5045828;28;20996;-71
2022/08/17 07:41:05;;;;;;;10.37;7.37;;;28.50;12.50;;;29.34;41.48;100630.22;5033633;28;20518;-70
2022/08/17 07:43:37;;;;;;;10.40;8.80;;;28.70;11.00;;;29.31;41.00;100630.91;5043206;28;20431;-68
2022/08/17 07:49:36;;;;;;;10.60;9.60;;;28.80;10.20;;;29.57;40.68;100634.41;5053739;28;20480;-69
2022/08/17 07:52:10;;;;;;;7.27;6.77;;;28.90;9.60;;;29.67;40.31;100639.63;5030904;28;20490;-70
2022/08/17 07:54:59;;;;;;;6.63;6.10;;;29.20;8.80;;;29.63;39.73;100638.63;5030520;28;20486;-69
2022/08/17 07:57:35;;;;;;;9.60;7.17;;;29.20;7.40;;;29.84;39.83;100640.66;5040371;28;20467;-69
2022/08/17 08:00:22;;;;;;;8.70;6.60;;;29.20;7.50;;;30.01;39.90;100643.38;5034131;28;20517;-68
2022/08/17 08:03:22;;;;;;;8.13;7.37;;;29.30;7.70;;;30.00;39.64;100644.53;5039929;28;20651;-67
2022/08/17 08:06:00;;;;;;;7.50;6.77;;;29.40;6.90;;;30.18;39.19;100640.47;5033502;28;20915;-70
2022/08/17 08:08:41;;;;;;;6.30;5.77;;;29.60;6.30;;;30.20;38.44;100635.38;5038879;28;20516;-71
2022/08/17 08:11:28;;;;;;;7.80;5.63;;;29.50;5.40;;;30.09;38.43;100636.91;5029704;28;20472;-70
2022/08/17 08:14:24;;;;;;;6.90;6.20;;;29.50;5.00;;;30.23;38.59;100640.25;5031618;28;20483;-72
2022/08/17 08:17:00;;;;;;;7.23;6.17;;;29.80;4.50;;;30.36;37.03;100647.53;5036529;28;20488;-69
2022/08/17 08:19:31;;;;;;;5.30;4.80;;;29.90;2.90;;;30.40;37.62;100642.09;5037064;28;20463;-69
2022/08/17 08:22:09;;;;;;;5.80;5.20;;;29.90;2.90;;;30.65;37.50;100650.28;5035943;28;20427;-69
2022/08/17 08:25:04;;;;;;;7.73;6.03;;;30.10;3.20;;;30.81;37.06;100653.25;5034898;28;20467;-71
2022/08/17 08:27:49;;;;;;;5.93;5.43;;;30.20;2.60;;;30.69;36.70;100657.97;5042608;28;20466;-71
2022/08/17 08:30:22;;;;;;;6.43;5.93;;;30.30;2.30;;;30.71;36.51;100655.66;5029416;28;20452;-69
2022/08/17 08:33:20;;;;;;;6.60;5.83;;;30.30;1.30;;;30.75;36.19;100653.78;5025153;28;20447;-69
2022/08/17 08:35:58;;;;;;;7.70;5.80;;;30.20;1.10;;;30.91;36.51;100661.19;5030150;28;20493;-69
2022/08/17 08:38:44;;;;;;;6.63;6.00;;;30.30;1.10;;;31.13;36.56;100654.41;5038238;28;20459;-69
2022/08/17 08:41:43;;;;;;;7.43;6.73;;;30.50;1.20;;;31.26;36.15;100656.09;5042872;28;20505;-68
2022/08/17 08:44:36;;;;;;;6.77;6.10;;;30.60;1.00;;;31.09;36.17;100645.09;5047586;28;20815;-69
2022/08/17 08:47:59;;;;;;;6.10;5.50;;;30.50;1.00;;;30.56;36.32;100643.94;5041062;28;20994;-69
2022/08/17 08:50:48;;;;;;;7.53;5.63;;;30.20;1.00;;;30.77;36.42;100649.50;5039373;28;20566;-70
2022/08/17 08:53:31;;;;;;;8.43;6.23;;;30.30;1.00;;;30.88;36.00;100649.91;5035632;28;20530;-71
2022/08/17 08:56:10;;;;;;;6.93;6.33;;;30.30;1.00;;;31.31;35.63;100647.47;5033380;28;20462;-70
2022/08/17 08:58:54;;;;;;;7.03;6.37;;;30.70;1.00;;;31.35;35.54;100645.63;5044250;28;20458;-70
2022/08/17 09:01:36;;;;;;;4.90;4.40;;;30.70;1.00;;;31.04;34.49;100648.09;5038496;28;20493;-69
2022/08/17 09:04:34;;;;;;;8.50;5.33;;;30.80;1.00;;;31.00;35.50;100649.94;5032228;28;20439;-69
2022/08/17 09:07:37;;;;;;;4.80;4.40;;;30.70;1.00;;;30.95;34.84;100639.78;5041297;28;20470;-70
2022/08/17 09:10:20;;;;;;;5.53;5.03;;;30.70;1.00;;;30.97;34.25;100642.25;5038587;28;20440;-69
2022/08/17 09:13:14;;;;;;;7.90;4.70;;;30.60;1.00;;;31.04;34.42;100646.13;5041591;28;20447;-71
2022/08/17 09:15:48;;;;;;;5.70;5.10;;;30.50;1.00;;;31.35;34.42;100648.41;5049576;28;20452;-71
2022/08/17 09:18:25;;;;;;;4.97;4.57;;;30.70;1.00;;;30.97;34.91;100642.25;5041150;22;20500;-72
2022/08/17 09:21:23;;;;;;;5.57;5.07;;;30.60;1.00;;;31.13;35.21;100634.06;5015147;28;20528;-72
2022/08/17 09:24:09;;;;;;;5.17;4.57;;;30.70;1.00;;;31.27;34.72;100640.97;5009695;28;21081;-72
2022/08/17 09:26:48;;;;;;;5.13;4.63;;;30.80;1.00;;;31.21;34.63;100630.34;5012677;28;20584;-72
2022/08/17 09:29:23;;;;;;;6.10;4.87;;;30.90;1.00;;;31.05;35.17;100632.97;5016958;28;20445;-73
2022/08/17 09:31:57;;;;;;;5.27;4.87;;;30.70;1.00;;;30.85;34.80;100640.22;5007674;28;20541;-72
2022/08/17 09:34:35;;;;;;;4.93;4.43;;;30.60;1.00;;;30.88;34.37;100638.72;5020466;28;20460;-73
2022/08/17 09:37:25;;;;;;;5.00;4.37;;;30.60;1.00;;;30.90;34.46;100637.22;5007534;28;20448;-72
2022/08/17 09:40:09;;;;;;;7.30;4.50;;;30.50;1.00;;;31.24;34.26;100638.84;5014495;28;20448;-72
2022/08/17 09:42:47;;;;;;;6.43;4.80;;;30.80;1.00;;;31.50;33.62;100628.16;5011744;28;20852;-72
2022/08/17 09:45:32;;;;;;;6.40;5.40;;;30.90;1.00;;;31.54;33.75;100633.03;5010714;28;20804;-72
2022/08/17 09:48:11;;;;;;;5.33;4.83;;;31.00;1.00;;;31.26;33.92;100638.50;5015514;28;20456;-73
2022/08/17 09:50:52;;;;;;;4.83;4.33;;;30.90;1.00;;;31.55;33.54;100645.88;5009248;28;20448;-74
2022/08/17 09:53:38;;;;;;;7.73;4.17;;;31.10;1.00;;;31.64;33.40;100643.78;5013110;28;20459;-72
2022/08/17 09:56:34;;;;;;;5.63;5.13;;;31.10;1.00;;;31.67;33.16;100637.50;5025752;28;20436;-73
2022/08/17 09:59:43;;;;;;;4.80;4.40;;;31.10;1.00;;;31.96;32.70;100642.84;5014943;28;22105;-73
2022/08/17 10:02:42;;;;;;;6.73;5.03;;;31.30;1.00;;;32.22;32.13;100636.88;5024412;28;20446;-74
2022/08/17 10:05:21;;;;;;;8.17;5.77;;;31.50;1.00;;;31.94;32.92;100636.78;5019680;28;20454;-73
2022/08/17 10:08:08;;;;;;;7.03;4.73;;;31.60;1.00;;;32.15;32.74;100631.88;5030975;28;20448;-73
2022/08/17 10:10:51;;;;;;;5.60;5.10;;;31.60;1.00;;;32.13;32.06;100634.22;5023044;28;20500;-73
2022/08/17 10:13:37;;;;;;;5.17;4.77;;;31.80;1.00;;;32.15;32.13;100628.25;5024941;28;20606;-74
2022/08/17 10:16:20;;;;;;;6.00;5.33;;;31.70;1.00;;;32.54;31.65;100621.00;5030618;28;20465;-73
2022/08/17 10:19:10;;;;;;;5.73;4.90;;;32.00;1.00;;;32.28;32.19;100621.47;5018430;28;20457;-71
2022/08/17 10:27:59;;;;;;;5.10;4.70;;;32.00;1.00;;;32.17;32.26;100621.16;5010957;28;20446;-73
2022/08/17 10:30:32;;;;;;;5.37;4.87;;;31.80;1.00;;;32.17;31.79;100615.53;5015756;28;20462;-73
2022/08/17 10:33:06;;;;;;;4.53;4.13;;;31.80;1.00;;;31.99;32.20;100622.56;5018143;28;20458;-74
2022/08/17 10:35:50;;;;;;;4.97;4.47;;;31.70;1.00;;;32.23;32.54;100630.94;5010035;28;20446;-72
2022/08/17 10:38:47;;;;;;;5.03;4.30;;;31.80;1.00;;;32.46;31.94;100624.78;5022096;28;20480;-72
2022/08/17 10:41:29;;;;;;;4.37;4.07;;;31.90;1.00;;;32.33;31.26;100624.84;5011313;28;20432;-72
2022/08/17 10:44:12;;;;;;;5.47;4.87;;;32.00;1.00;;;32.69;31.78;100623.06;5010421;28;20517;-73
2022/08/17 10:47:10;;;;;;;11.43;4.87;;;32.10;1.00;;;33.12;30.54;100625.88;5014262;28;20471;-72
2022/08/17 10:49:46;;;;;;;5.60;5.10;;;32.40;1.00;;;33.08;30.79;100621.34;5007898;28;20931;-73
2022/08/17 10:52:56;;;;;;;4.70;4.30;;;32.40;1.00;;;33.13;31.01;100621.91;5012918;28;20444;-72
2022/08/17 10:55:25;;;;;;;4.50;4.10;;;32.60;1.00;;;32.78;30.52;100621.75;5007634;28;20989;-70
2022/08/17 10:58:20;;;;;;;6.07;5.47;;;32.40;1.00;;;32.97;31.08;100623.84;5011829;28;20550;-71
2022/08/17 11:01:11;;;;;;;4.50;4.10;;;32.50;1.00;;;32.68;31.26;100625.06;5013237;28;20467;-72
2022/08/17 11:03:54;;;;;;;4.80;4.40;;;32.40;1.00;;;32.78;30.93;100624.53;5009392;28;20442;-73
2022/08/17 11:06:35;;;;;;;5.23;4.67;;;32.30;1.00;;;32.81;30.37;100620.22;5003491;28;20495;-71
2022/08/17 11:09:33;;;;;;;6.17;4.57;;;32.40;1.00;;;32.84;30.56;100613.91;5029956;22;20547;-73
2022/08/17 11:12:28;;;;;;;5.30;4.00;;;32.40;1.00;;;33.04;30.69;100604.44;4999281;28;20450;-72
2022/08/17 11:15:28;;;;;;;5.47;4.60;;;32.60;1.00;;;32.52;30.67;100604.59;4998747;28;20502;-71
2022/08/17 11:18:38;;;;;;;6.33;5.43;;;32.20;1.00;;;32.97;30.66;100604.22;4991170;28;20475;-72